Time;durP1;ratioP1;P1;durP2;ratioP2;P2;SDS_P1;SDS_P2;PMS_P1;PMS_P2;Temp;Humidity;BMP_temperature;BMP_pressure;BME280_temperature;BME280_humidity;BME280_pressure;Samples;Min_cycle;Max_cycle;Signal;HPM_P1;HPM_P2
2021/12/15 00:01:51;;;;;;;26.30;13.93;;;9.50;99.90;;;;;;5036610;28;20627;-90
2021/12/15 00:04:17;;;;;;;26.70;14.73;;;9.50;99.90;;;;;;5019311;28;20074;-90
2021/12/15 00:06:43;;;;;;;27.03;14.23;;;9.60;99.90;;;;;;5020305;28;20451;-91
2021/12/15 00:09:12;;;;;;;26.87;14.70;;;9.50;99.90;;;;;;5019968;28;20067;-90
2021/12/15 00:11:38;;;;;;;26.40;15.32;;;9.60;99.90;;;;;;5036674;28;20033;-91
2021/12/15 00:14:10;;;;;;;23.97;13.17;;;9.50;99.90;;;;;;5036438;28;20060;-91
2021/12/15 00:16:37;;;;;;;24.37;13.93;;;9.50;99.90;;;;;;5036400;28;20037;-90
2021/12/15 00:19:06;;;;;;;24.53;13.43;;;9.50;99.90;;;;;;5036325;28;20056;-91
2021/12/15 00:21:32;;;;;;;23.27;14.20;;;9.50;99.90;;;;;;5019747;28;20083;-90
2021/12/15 00:23:58;;;;;;;29.10;15.27;;;9.50;99.90;;;;;;5019668;28;20417;-92
2021/12/15 00:26:25;;;;;;;22.07;13.50;;;9.50;99.90;;;;;;5036065;28;20037;-89
2021/12/15 00:28:51;;;;;;;25.13;13.57;;;9.50;99.90;;;;;;5019377;28;20032;-91
2021/12/15 00:31:18;;;;;;;24.00;13.13;;;9.50;99.90;;;;;;5019731;28;20079;-91
2021/12/15 00:33:45;;;;;;;25.10;13.83;;;9.50;99.90;;;;;;5019856;28;20499;-91
2021/12/15 00:36:11;;;;;;;21.23;12.30;;;9.50;99.90;;;;;;5035909;28;20051;-91
2021/12/15 00:38:38;;;;;;;25.10;13.93;;;9.50;99.90;;;;;;5019748;28;20113;-91
2021/12/15 00:41:05;;;;;;;21.63;12.70;;;9.50;99.90;;;;;;5019982;28;20032;-92
2021/12/15 00:43:31;;;;;;;25.23;13.80;;;9.50;99.90;;;;;;5035966;28;20025;-91
2021/12/15 00:45:57;;;;;;;26.53;14.17;;;9.50;99.90;;;;;;5019169;28;20029;-91
2021/12/15 00:48:23;;;;;;;21.77;12.80;;;9.50;99.90;;;;;;5035650;28;20029;-91
2021/12/15 00:50:49;;;;;;;23.60;13.23;;;9.50;99.90;;;;;;5019406;28;20402;-91
2021/12/15 00:53:15;;;;;;;21.63;12.40;;;9.50;99.90;;;;;;5019430;28;20025;-91
2021/12/15 00:55:43;;;;;;;24.83;12.23;;;9.50;99.90;;;;;;5019479;28;20029;-91
2021/12/15 00:58:10;;;;;;;21.00;12.17;;;9.60;99.90;;;;;;5019299;28;20025;-90
2021/12/15 01:00:47;;;;;;;19.80;12.67;;;9.50;99.90;;;;;;5035713;28;20061;-92
2021/12/15 01:03:13;;;;;;;22.50;12.10;;;9.50;99.90;;;;;;5035773;28;20091;-91
2021/12/15 01:05:43;;;;;;;20.70;12.23;;;9.50;99.90;;;;;;5035678;28;20032;-91
2021/12/15 01:08:14;;;;;;;21.10;11.20;;;9.50;99.90;;;;;;5018944;28;20493;-91
2021/12/15 01:21:44;;;;;;;17.30;10.53;;;9.50;99.90;;;;;;5035302;28;20055;-91
2021/12/15 01:24:10;;;;;;;18.93;10.63;;;9.60;99.90;;;;;;5035081;28;20033;-91
2021/12/15 01:26:36;;;;;;;19.77;11.30;;;9.60;99.90;;;;;;5018922;28;20025;-91
2021/12/15 01:29:02;;;;;;;20.00;11.00;;;9.50;99.90;;;;;;5018915;28;20033;-91
2021/12/15 01:31:28;;;;;;;20.07;11.80;;;9.60;99.90;;;;;;5035418;28;20033;-91
2021/12/15 01:33:54;;;;;;;21.20;11.10;;;9.60;99.90;;;;;;5018844;28;20029;-91
2021/12/15 01:36:21;;;;;;;20.40;12.10;;;9.50;99.90;;;;;;5035340;28;20120;-91
2021/12/15 01:38:47;;;;;;;22.27;11.33;;;9.60;99.90;;;;;;5018979;28;20086;-91
2021/12/15 01:41:20;;;;;;;19.20;11.00;;;9.60;99.90;;;;;;5039328;28;20021;-94
2021/12/15 01:49:37;;;;;;;19.47;11.47;;;9.50;99.90;;;;;;5034790;28;20092;-90
2021/12/15 01:52:37;;;;;;;22.87;11.63;;;9.50;99.90;;;;;;5018423;28;20037;-90
2021/12/15 01:55:09;;;;;;;20.50;12.20;;;9.50;99.90;;;;;;4997406;28;20032;-90
2021/12/15 01:57:36;;;;;;;17.87;11.03;;;9.40;99.90;;;;;;5034735;28;20036;-90
2021/12/15 02:00:39;;;;;;;18.97;11.70;;;9.50;99.90;;;;;;5018620;28;20033;-90
2021/12/15 02:03:05;;;;;;;21.10;12.63;;;9.50;99.90;;;;;;5016628;28;20052;-90
2021/12/15 02:05:32;;;;;;;21.77;12.00;;;9.50;99.90;;;;;;5034932;28;20528;-90
2021/12/15 02:08:00;;;;;;;23.00;12.20;;;9.50;99.90;;;;;;5018061;28;20120;-91
2021/12/15 02:10:29;;;;;;;21.50;12.90;;;9.50;99.90;;;;;;5034822;28;20393;-90
2021/12/15 02:12:59;;;;;;;21.10;12.30;;;9.50;99.90;;;;;;5018267;28;20087;-91
2021/12/15 02:15:29;;;;;;;20.73;11.97;;;9.50;99.90;;;;;;5018268;28;20045;-91
2021/12/15 02:17:56;;;;;;;22.20;12.80;;;9.50;99.90;;;;;;5018657;28;20032;-90
2021/12/15 02:20:28;;;;;;;20.67;12.37;;;9.40;99.90;;;;;;5018245;28;20107;-90
2021/12/15 02:22:55;;;;;;;23.03;12.47;;;9.40;99.90;;;;;;5018130;28;20088;-91
2021/12/15 02:25:21;;;;;;;21.30;12.53;;;9.40;99.90;;;;;;5034541;28;20056;-90
2021/12/15 02:27:46;;;;;;;22.80;12.77;;;9.40;99.90;;;;;;5035936;28;20021;-89
2021/12/15 02:30:41;;;;;;;21.33;12.60;;;9.50;99.90;;;;;;5021922;28;20048;-88
2021/12/15 02:38:41;;;;;;;19.37;11.73;;;9.40;99.90;;;;;;5038435;28;20404;-88
2021/12/15 02:41:19;;;;;;;23.77;12.50;;;9.40;99.90;;;;;;5038779;28;20387;-89
2021/12/15 02:44:18;;;;;;;22.47;12.57;;;9.50;99.90;;;;;;5038465;28;20060;-89
2021/12/15 02:46:45;;;;;;;20.80;12.50;;;9.40;99.90;;;;;;5039574;28;20025;-91
2021/12/15 02:49:13;;;;;;;18.70;11.60;;;9.50;99.90;;;;;;5026864;28;20035;-91
2021/12/15 02:51:43;;;;;;;21.63;12.40;;;9.50;99.90;;;;;;5050128;28;20035;-93
2021/12/15 02:54:14;;;;;;;20.67;12.75;;;9.50;99.90;;;;;;5047246;28;20024;-93
2021/12/15 02:56:42;;;;;;;21.87;12.47;;;9.50;99.90;;;;;;5041992;28;20066;-91
2021/12/15 02:59:10;;;;;;;20.90;12.90;;;9.50;99.90;;;;;;5030609;28;20116;-91
2021/12/15 03:04:27;;;;;;;25.00;13.33;;;9.50;99.90;;;;;;5042146;28;20397;-91
2021/12/15 03:07:26;;;;;;;24.57;13.20;;;9.50;99.90;;;;;;5023053;28;20052;-91
2021/12/15 03:18:05;;;;;;;23.20;12.97;;;9.50;99.90;;;;;;5037538;28;20496;-91
2021/12/15 03:20:36;;;;;;;24.43;14.03;;;9.50;99.90;;;;;;5037578;28;20036;-91
2021/12/15 03:23:06;;;;;;;24.67;13.37;;;9.50;99.90;;;;;;5037514;28;20396;-90
2021/12/15 03:25:32;;;;;;;25.57;14.53;;;9.50;99.90;;;;;;5021158;28;20028;-91
2021/12/15 03:36:52;;;;;;;29.20;14.97;;;9.50;99.90;;;;;;5014432;28;20139;-91
2021/12/15 03:39:18;;;;;;;28.67;16.30;;;9.60;99.90;;;;;;5020779;28;20037;-91
2021/12/15 03:41:44;;;;;;;30.50;15.47;;;9.60;99.90;;;;;;5037444;28;20083;-91
2021/12/15 03:44:10;;;;;;;29.40;15.90;;;9.60;99.90;;;;;;5037033;28;20099;-91
2021/12/15 03:46:37;;;;;;;28.13;16.17;;;9.60;99.90;;;;;;5020641;28;20029;-92
2021/12/15 03:49:03;;;;;;;30.20;16.50;;;9.60;99.90;;;;;;5037085;28;20096;-91
2021/12/15 03:51:29;;;;;;;29.13;16.40;;;9.60;99.90;;;;;;5020528;28;20041;-90
2021/12/15 03:53:56;;;;;;;32.03;16.47;;;9.60;99.90;;;;;;5020542;28;20028;-91
2021/12/15 03:56:22;;;;;;;28.20;16.37;;;9.60;99.90;;;;;;5020445;28;20036;-91
2021/12/15 03:58:48;;;;;;;32.00;16.13;;;9.60;99.90;;;;;;5027685;28;20040;-91
2021/12/15 04:01:21;;;;;;;27.83;16.03;;;9.60;99.90;;;;;;5042196;28;20128;-90
2021/12/15 04:03:58;;;;;;;26.33;15.70;;;9.60;99.90;;;;;;5037380;28;20036;-91
2021/12/15 04:06:28;;;;;;;31.17;16.93;;;9.60;99.90;;;;;;5037058;28;20033;-92
2021/12/15 04:08:55;;;;;;;30.80;17.10;;;9.70;99.90;;;;;;5036907;28;20025;-91
2021/12/15 04:11:24;;;;;;;32.30;16.93;;;9.60;99.90;;;;;;5020172;28;20025;-90
2021/12/15 04:13:51;;;;;;;;;;;9.60;99.90;;;;;;5020757;28;20055;-91
2021/12/15 04:26:57;;;;;;;;;;;9.70;99.90;;;;;;5054934;28;19929;-89
2021/12/15 04:29:23;;;;;;;;;;;9.60;99.90;;;;;;5025497;28;19908;-89
2021/12/15 04:31:54;;;;;;;;;;;9.70;99.90;;;;;;5039526;28;19958;-89
2021/12/15 04:34:19;;;;;;;;;;;9.70;99.90;;;;;;5020283;28;19966;-89
2021/12/15 04:36:48;;;;;;;;;;;9.70;99.90;;;;;;5014384;28;19913;-89
2021/12/15 04:39:15;;;;;;;;;;;9.70;99.90;;;;;;5045400;28;19999;-89
2021/12/15 04:41:46;;;;;;;;;;;9.70;99.90;;;;;;5041576;28;19916;-89
2021/12/15 04:44:13;;;;;;;;;;;9.70;99.90;;;;;;5037885;28;20007;-88
2021/12/15 04:46:40;;;;;;;;;;;9.60;99.90;;;;;;5039076;28;19919;-89
2021/12/15 04:49:07;;;;;;;;;;;9.60;99.90;;;;;;5039051;28;20380;-90
2021/12/15 04:51:33;;;;;;;;;;;9.60;99.90;;;;;;5037269;28;19942;-89
2021/12/15 04:53:58;;;;;;;;;;;9.70;99.90;;;;;;5038712;28;19924;-89
2021/12/15 04:56:26;;;;;;;;;;;9.60;99.90;;;;;;5038758;28;20069;-89
2021/12/15 04:58:54;;;;;;;;;;;9.60;99.90;;;;;;5038454;28;20033;-89
2021/12/15 05:01:20;;;;;;;;;;;9.60;99.90;;;;;;5038393;28;19970;-89
2021/12/15 05:03:47;;;;;;;;;;;9.60;99.90;;;;;;5039505;28;20065;-89
2021/12/15 05:06:13;;;;;;;;;;;9.60;99.90;;;;;;5039158;28;20041;-90
2021/12/15 05:08:42;;;;;;;;;;;9.60;99.90;;;;;;5056241;28;20074;-89
2021/12/15 05:11:09;;;;;;;;;;;9.60;99.90;;;;;;5039182;28;20001;-89
2021/12/15 05:13:36;;;;;;;;;;;9.60;99.90;;;;;;5041037;28;20321;-89
2021/12/15 05:16:03;;;;;;;;;;;9.60;99.90;;;;;;5041045;28;19920;-89
2021/12/15 05:18:29;;;;;;;;;;;9.60;99.90;;;;;;5039680;28;19919;-89
2021/12/15 05:20:55;;;;;;;;;;;9.60;99.90;;;;;;5038503;28;20049;-88
2021/12/15 05:23:26;;;;;;;;;;;9.60;99.90;;;;;;5038883;28;19912;-89
2021/12/15 05:25:52;;;;;;;;;;;9.60;99.90;;;;;;5038447;28;20283;-89
2021/12/15 05:28:17;;;;;;;;;;;9.60;99.90;;;;;;5038354;28;19966;-89
2021/12/15 05:30:43;;;;;;;;;;;9.60;99.90;;;;;;5043527;28;19908;-90
2021/12/15 05:33:08;;;;;;;;;;;9.60;99.90;;;;;;5041125;28;19970;-93
2021/12/15 05:35:34;;;;;;;;;;;9.60;99.90;;;;;;5039504;28;19915;-89
2021/12/15 05:38:01;;;;;;;;;;;9.60;99.90;;;;;;5039533;28;19908;-87
2021/12/15 05:40:27;;;;;;;;;;;9.50;99.90;;;;;;5037085;28;20378;-89
2021/12/15 05:42:56;;;;;;;;;;;9.60;99.90;;;;;;5072148;28;20003;-90
2021/12/15 05:45:25;;;;;;;;;;;9.60;99.90;;;;;;5037132;28;19909;-88
2021/12/15 05:47:53;;;;;;;;;;;9.50;99.90;;;;;;5037243;28;19912;-88
2021/12/15 05:50:19;;;;;;;;;;;9.60;99.90;;;;;;5038129;28;19919;-90
2021/12/15 05:52:44;;;;;;;;;;;9.60;99.90;;;;;;5037267;28;20007;-88
2021/12/15 05:55:12;;;;;;;;;;;9.60;99.90;;;;;;5057822;28;19943;-89
2021/12/15 05:57:38;;;;;;;;;;;9.60;99.90;;;;;;5059606;28;19975;-90
2021/12/15 06:00:07;;;;;;;;;;;9.60;99.90;;;;;;5044781;28;19908;-90
2021/12/15 06:02:37;;;;;;;;;;;9.60;99.90;;;;;;5084846;28;19943;-90
2021/12/15 06:05:03;;;;;;;;;;;9.60;99.90;;;;;;5048618;28;19908;-89
2021/12/15 06:07:29;;;;;;;;;;;9.60;99.90;;;;;;5042069;28;19931;-91
2021/12/15 06:09:55;;;;;;;;;;;9.60;99.90;;;;;;5042288;28;19911;-90
2021/12/15 06:12:20;;;;;;;;;;;9.60;99.90;;;;;;5043120;28;19908;-90
2021/12/15 06:14:46;;;;;;;;;;;9.50;99.90;;;;;;5043633;28;19909;-91
2021/12/15 06:17:12;;;;;;;;;;;9.60;99.90;;;;;;5044346;28;19905;-90
2021/12/15 06:19:38;;;;;;;;;;;9.50;99.90;;;;;;5045089;28;19958;-90
2021/12/15 06:22:05;;;;;;;;;;;9.50;99.90;;;;;;5046844;28;20361;-89
2021/12/15 06:24:31;;;;;;;;;;;9.60;99.90;;;;;;5062187;28;19912;-89
2021/12/15 06:27:03;;;;;;;;;;;9.50;99.90;;;;;;5063459;28;19971;-89
2021/12/15 06:29:29;;;;;;;;;;;9.50;99.90;;;;;;5057294;28;19923;-90
2021/12/15 06:31:56;;;;;;;;;;;9.60;99.90;;;;;;5061287;28;19903;-90
2021/12/15 06:34:21;;;;;;;;;;;9.60;99.90;;;;;;5050026;28;20275;-90
2021/12/15 06:36:53;;;;;;;;;;;9.60;99.90;;;;;;5060260;28;19909;-89
2021/12/15 07:00:32;;;;;;;;;;;9.60;99.90;;;;;;5076480;28;20002;-92
2021/12/15 07:03:00;;;;;;;;;;;9.60;99.90;;;;;;5062841;28;19913;-92
2021/12/15 07:05:26;;;;;;;;;;;9.50;99.90;;;;;;5059186;28;19948;-92
2021/12/15 07:07:53;;;;;;;;;;;9.60;99.90;;;;;;5048251;28;19957;-93
2021/12/15 07:10:21;;;;;;;;;;;9.50;99.90;;;;;;5043109;28;19916;-89
2021/12/15 07:12:47;;;;;;;;;;;9.60;99.90;;;;;;5041028;28;20444;-88
2021/12/15 07:15:14;;;;;;;;;;;9.60;99.90;;;;;;5042203;28;19909;-89
2021/12/15 07:17:40;;;;;;;;;;;9.60;99.90;;;;;;5042361;28;19909;-90
2021/12/15 07:20:29;;;;;;;;;;;9.60;99.90;;;;;;5056922;28;19908;-89
2021/12/15 07:22:53;;;;;;;;;;;9.60;99.90;;;;;;5074791;28;19994;-89
2021/12/15 07:51:44;;;;;;;;;;;9.80;99.90;;;;;;5123513;27;20359;-90
2021/12/15 07:54:10;;;;;;;;;;;9.80;99.90;;;;;;5074635;27;19916;-88
2021/12/15 08:33:09;;;;;;;30.50;19.07;;;9.70;99.90;;;;;;5046855;27;20574;-87
2021/12/15 08:35:40;;;;;;;27.42;18.65;;;9.80;99.90;;;;;;4991898;28;20050;-87
2021/12/15 08:38:09;;;;;;;28.60;17.33;;;9.80;99.90;;;;;;4996701;28;20022;-88
2021/12/15 08:40:45;;;;;;;27.67;17.70;;;9.80;99.90;;;;;;4987097;28;20039;-90
2021/12/15 08:43:13;;;;;;;29.30;18.47;;;9.80;99.90;;;;;;5004362;28;20061;-88
2021/12/15 08:45:42;;;;;;;25.97;16.63;;;9.80;99.90;;;;;;4987225;28;20038;-90
2021/12/15 08:48:09;;;;;;;28.30;17.97;;;9.80;99.90;;;;;;4986859;28;20485;-88
2021/12/15 08:50:38;;;;;;;29.60;18.33;;;9.80;99.90;;;;;;4970833;28;20576;-89
2021/12/15 08:53:05;;;;;;;61.72;21.83;;;9.80;99.90;;;;;;4987355;28;20109;-88
2021/12/15 08:55:32;;;;;;;31.63;18.97;;;9.80;99.90;;;;;;4986980;28;20125;-89
2021/12/15 08:57:59;;;;;;;54.73;20.70;;;9.80;99.90;;;;;;4988924;28;20123;-92
2021/12/15 09:00:26;;;;;;;68.63;22.37;;;9.80;99.90;;;;;;4990195;28;20034;-89
2021/12/15 09:02:55;;;;;;;62.83;22.37;;;9.90;99.90;;;;;;4987455;28;20098;-89
2021/12/15 09:05:22;;;;;;;30.08;18.05;;;9.80;99.90;;;;;;4986967;28;20027;-88
2021/12/15 09:07:51;;;;;;;29.00;16.97;;;9.80;99.90;;;;;;4986773;28;20058;-89
2021/12/15 09:10:18;;;;;;;27.63;16.98;;;9.80;99.90;;;;;;4986814;28;20073;-89
2021/12/15 09:12:47;;;;;;;25.60;17.30;;;9.80;99.90;;;;;;4986895;28;20042;-89
2021/12/15 09:15:13;;;;;;;32.75;19.23;;;9.90;99.90;;;;;;4986661;28;20050;-89
2021/12/15 09:17:40;;;;;;;58.20;20.57;;;9.90;99.90;;;;;;4986697;28;20049;-89
2021/12/15 09:20:09;;;;;;;28.13;17.47;;;9.90;99.90;;;;;;4986896;28;20492;-89
2021/12/15 09:22:37;;;;;;;36.67;17.52;;;9.90;99.90;;;;;;4987682;28;20034;-89
2021/12/15 09:25:09;;;;;;;37.13;18.08;;;9.90;99.90;;;;;;4986422;28;20126;-90
2021/12/15 09:27:35;;;;;;;29.13;17.00;;;10.00;99.90;;;;;;4986793;28;20102;-89
2021/12/15 09:30:01;;;;;;;28.20;17.37;;;10.00;99.90;;;;;;4986395;28;20027;-88
2021/12/15 09:32:27;;;;;;;27.53;17.20;;;10.00;99.90;;;;;;4982087;28;20039;-89
2021/12/15 09:34:54;;;;;;;31.30;18.73;;;9.90;99.90;;;;;;4990396;28;20027;-89
2021/12/15 09:37:20;;;;;;;29.83;17.50;;;9.90;99.90;;;;;;4975093;28;20039;-89
2021/12/15 09:39:46;;;;;;;56.27;20.93;;;10.00;99.90;;;;;;4973668;28;20062;-90
2021/12/15 09:42:17;;;;;;;39.97;17.77;;;10.00;99.90;;;;;;4973777;28;20117;-89
2021/12/15 09:44:44;;;;;;;34.67;18.30;;;10.00;99.90;;;;;;4973286;28;20031;-89
2021/12/15 09:47:36;;;;;;;28.90;16.83;;;10.10;99.90;;;;;;4973404;28;20027;-89
2021/12/15 10:04:13;;;;;;;32.20;17.97;;;10.10;99.90;;;;;;5016948;28;20484;-86
2021/12/15 10:17:40;;;;;;;32.80;17.60;;;10.30;99.90;;;;;;5012760;28;20037;-84
2021/12/15 10:20:13;;;;;;;30.57;18.13;;;10.30;99.90;;;;;;5011907;28;20330;-84
2021/12/15 10:22:46;;;;;;;30.20;17.30;;;10.20;99.90;;;;;;5012520;28;20034;-84
2021/12/15 10:25:19;;;;;;;96.43;23.73;;;10.30;99.90;;;;;;5012940;28;20033;-83
2021/12/15 10:27:50;;;;;;;57.13;18.80;;;10.30;99.90;;;;;;5012252;28;20124;-84
2021/12/15 10:30:39;;;;;;;30.53;18.40;;;10.30;99.90;;;;;;5012432;28;20040;-84
2021/12/15 10:33:11;;;;;;;31.25;17.63;;;10.30;99.90;;;;;;5011033;28;20041;-84
2021/12/15 10:35:44;;;;;;;30.23;17.43;;;10.30;99.90;;;;;;5009391;28;20057;-85
2021/12/15 10:38:19;;;;;;;28.63;16.33;;;10.30;99.90;;;;;;5026834;28;20080;-85
2021/12/15 10:40:53;;;;;;;25.20;16.00;;;10.30;99.90;;;;;;5027184;28;20038;-84
2021/12/15 10:43:22;;;;;;;28.53;17.53;;;10.30;99.90;;;;;;5012408;28;20029;-84
2021/12/15 10:45:53;;;;;;;29.77;16.88;;;10.30;99.90;;;;;;5009780;28;20026;-84
2021/12/15 10:48:38;;;;;;;92.53;22.37;;;10.30;99.90;;;;;;5010677;28;20025;-85
2021/12/15 10:51:45;;;;;;;28.73;15.60;;;10.30;99.90;;;;;;5027161;28;20128;-84
2021/12/15 10:54:14;;;;;;;25.90;15.97;;;10.40;99.90;;;;;;5003104;28;20123;-84
2021/12/15 10:57:08;;;;;;;27.03;15.87;;;10.40;99.90;;;;;;5010587;28;20038;-86
2021/12/15 10:59:37;;;;;;;27.40;15.37;;;10.40;99.90;;;;;;5010194;28;20061;-86
2021/12/15 11:02:23;;;;;;;25.85;15.77;;;10.30;99.90;;;;;;5010991;28;20163;-88
2021/12/15 11:05:18;;;;;;;24.90;15.27;;;10.30;99.90;;;;;;5027499;28;20053;-86
2021/12/15 11:07:54;;;;;;;25.23;15.10;;;10.30;99.90;;;;;;5027100;28;20038;-85
2021/12/15 11:10:30;;;;;;;23.97;15.33;;;10.30;99.90;;;;;;5025204;28;20460;-86
2021/12/15 11:13:09;;;;;;;23.53;15.23;;;10.40;99.90;;;;;;5028227;28;20034;-86
2021/12/15 11:15:43;;;;;;;24.40;15.32;;;10.30;99.90;;;;;;5011960;28;20029;-87
2021/12/15 11:18:17;;;;;;;26.60;15.90;;;10.30;99.90;;;;;;5028545;28;20030;-87
2021/12/15 11:20:52;;;;;;;25.50;15.70;;;10.30;99.90;;;;;;5012185;28;20089;-87
2021/12/15 11:23:22;;;;;;;24.53;16.23;;;10.30;99.90;;;;;;5028205;28;20076;-86
2021/12/15 11:25:53;;;;;;;26.50;15.67;;;10.30;99.90;;;;;;5012109;28;20026;-87
2021/12/15 11:28:26;;;;;;;29.03;16.60;;;10.30;99.90;;;;;;5011794;28;20503;-87
2021/12/15 11:31:01;;;;;;;26.63;16.27;;;10.30;99.90;;;;;;5028344;28;20484;-87
2021/12/15 11:33:30;;;;;;;26.93;15.70;;;10.30;99.90;;;;;;5020535;28;20124;-87
2021/12/15 11:36:25;;;;;;;24.67;15.65;;;10.40;99.90;;;;;;5028283;28;20033;-87
2021/12/15 11:38:56;;;;;;;38.77;18.27;;;10.30;99.90;;;;;;5023634;28;20042;-86
2021/12/15 11:41:31;;;;;;;30.70;17.07;;;10.30;99.90;;;;;;5028316;28;20113;-87
2021/12/15 11:44:05;;;;;;;129.67;25.60;;;10.30;99.90;;;;;;5008806;28;20087;-87
2021/12/15 11:46:50;;;;;;;32.53;17.27;;;10.30;99.90;;;;;;5031054;28;20022;-86
2021/12/15 11:49:19;;;;;;;31.50;16.63;;;10.30;99.90;;;;;;5031067;28;20030;-87
2021/12/15 11:51:51;;;;;;;56.80;19.65;;;10.30;99.90;;;;;;5028596;28;20026;-88
2021/12/15 11:54:19;;;;;;;31.30;17.93;;;10.30;99.90;;;;;;5011395;28;20053;-88
2021/12/15 11:56:57;;;;;;;28.07;17.23;;;10.30;99.90;;;;;;4995053;28;20037;-88
2021/12/15 11:59:49;;;;;;;46.00;18.77;;;10.40;99.90;;;;;;5011334;28;20559;-86
2021/12/15 12:02:27;;;;;;;28.33;16.67;;;10.40;99.90;;;;;;5010981;28;20078;-86
2021/12/15 12:05:03;;;;;;;57.47;20.23;;;10.40;99.90;;;;;;5011323;28;20506;-86
2021/12/15 12:07:38;;;;;;;32.13;17.53;;;10.40;99.90;;;;;;5011106;28;20484;-85
2021/12/15 12:10:20;;;;;;;27.13;16.50;;;10.40;99.90;;;;;;5010929;28;20049;-87
2021/12/15 12:12:52;;;;;;;46.00;18.53;;;10.40;99.90;;;;;;5010783;28;20547;-86
2021/12/15 12:15:21;;;;;;;44.30;19.37;;;10.40;99.90;;;;;;5011050;28;20080;-85
2021/12/15 12:17:51;;;;;;;45.65;18.13;;;10.40;99.90;;;;;;5011021;28;20026;-86
2021/12/15 12:20:24;;;;;;;94.97;24.80;;;10.40;99.90;;;;;;5012183;28;20026;-85
2021/12/15 12:22:52;;;;;;;100.67;26.93;;;10.40;99.90;;;;;;5010754;28;20481;-86
2021/12/15 12:25:19;;;;;;;66.03;21.63;;;10.40;99.90;;;;;;5011333;28;20053;-86
2021/12/15 12:27:46;;;;;;;32.57;18.60;;;10.40;99.90;;;;;;5010539;28;20029;-86
2021/12/15 12:30:18;;;;;;;34.73;18.63;;;10.40;99.90;;;;;;5010674;28;20034;-86
2021/12/15 12:32:45;;;;;;;46.77;20.37;;;10.50;99.90;;;;;;5010633;28;20370;-85
2021/12/15 12:35:12;;;;;;;37.60;19.33;;;10.40;99.90;;;;;;5011065;28;20038;-85
2021/12/15 12:37:38;;;;;;;32.80;18.53;;;10.40;99.90;;;;;;5010975;28;20108;-87
2021/12/15 12:40:18;;;;;;;31.67;18.90;;;10.40;99.90;;;;;;5012262;28;20061;-87
2021/12/15 12:42:43;;;;;;;35.97;18.52;;;10.40;99.90;;;;;;5010208;28;20554;-86
2021/12/15 12:45:18;;;;;;;34.37;19.03;;;10.40;99.90;;;;;;5019030;28;20124;-86
2021/12/15 12:48:23;;;;;;;33.93;20.20;;;10.50;99.90;;;;;;5030199;28;20090;-85
2021/12/15 12:59:41;;;;;;;44.47;20.97;;;10.50;99.90;;;;;;5044784;28;19948;-87
2021/12/15 13:02:33;;;;;;;39.77;20.83;;;10.40;99.90;;;;;;5045035;28;20033;-87
2021/12/15 13:04:59;;;;;;;38.47;20.70;;;10.40;99.90;;;;;;5030075;28;20451;-87
2021/12/15 13:07:48;;;;;;;39.53;20.03;;;10.50;99.90;;;;;;5013936;28;20029;-85
2021/12/15 13:10:16;;;;;;;37.63;20.02;;;10.50;99.90;;;;;;5033552;28;20026;-87
2021/12/15 13:12:47;;;;;;;111.57;29.37;;;10.40;99.90;;;;;;5033650;28;20484;-87
2021/12/15 13:15:23;;;;;;;58.67;21.83;;;10.50;99.90;;;;;;5033917;28;20059;-86
2021/12/15 13:18:12;;;;;;;38.47;20.17;;;10.50;99.90;;;;;;5033861;28;20044;-87
2021/12/15 13:20:38;;;;;;;;;;;10.50;99.90;;;;;;5017903;28;20037;-86
2021/12/15 13:23:18;;;;;;;49.97;21.37;;;10.50;99.90;;;;;;5033814;28;19931;-87
2021/12/15 13:28:49;;;;;;;41.40;21.40;;;10.50;99.90;;;;;;5050238;28;20041;-86
2021/12/15 13:31:19;;;;;;;87.87;25.50;;;10.50;99.90;;;;;;5033804;28;20167;-87
2021/12/15 13:33:44;;;;;;;;;;;10.50;99.90;;;;;;5034191;28;20032;-87
2021/12/15 13:36:21;;;;;;;59.23;21.73;;;10.50;99.90;;;;;;5050268;28;20271;-86
2021/12/15 13:39:11;;;;;;;39.83;21.00;;;10.50;99.90;;;;;;5033510;28;20029;-87
2021/12/15 13:42:00;;;;;;;45.23;22.60;;;10.60;99.90;;;;;;5017256;28;20178;-86
2021/12/15 13:44:30;;;;;;;;;;;10.50;99.90;;;;;;5017646;28;20049;-87
2021/12/15 13:47:08;;;;;;;44.73;22.27;;;10.50;99.90;;;;;;5050431;28;20380;-87
2021/12/15 13:49:57;;;;;;;44.15;22.35;;;10.50;99.90;;;;;;5033370;28;20029;-87
2021/12/15 13:52:44;;;;;;;40.85;20.65;;;10.50;99.90;;;;;;5016768;28;20060;-87
2021/12/15 13:55:14;;;;;;;77.20;27.37;;;10.50;99.90;;;;;;5050070;28;20037;-87
2021/12/15 13:57:45;;;;;;;47.97;22.77;;;10.50;99.90;;;;;;5033275;28;20032;-87
2021/12/15 14:00:20;;;;;;;42.30;22.10;;;10.50;99.90;;;;;;5033159;28;20491;-87
2021/12/15 14:03:00;;;;;;;43.83;22.23;;;10.50;99.90;;;;;;5049839;28;20029;-87
2021/12/15 14:06:04;;;;;;;38.50;21.00;;;10.50;99.90;;;;;;5033297;28;20480;-87
2021/12/15 14:08:42;;;;;;;43.50;20.47;;;10.50;99.90;;;;;;5023785;28;20049;-87
2021/12/15 14:11:16;;;;;;;42.63;20.10;;;10.50;99.90;;;;;;5033127;28;20029;-86
2021/12/15 14:13:50;;;;;;;38.77;20.50;;;10.50;99.90;;;;;;5016770;28;20029;-87
2021/12/15 14:16:34;;;;;;;38.00;20.90;;;10.50;99.90;;;;;;5033145;28;20395;-86
2021/12/15 14:19:31;;;;;;;38.00;19.47;;;10.50;99.90;;;;;;5049605;28;20029;-87
2021/12/15 14:22:00;;;;;;;37.20;19.77;;;10.50;99.90;;;;;;5035053;28;20124;-87
2021/12/15 14:24:28;;;;;;;38.80;20.35;;;10.60;99.90;;;;;;5017858;28;20079;-87
2021/12/15 14:26:55;;;;;;;36.22;20.38;;;10.50;99.90;;;;;;5033770;28;20029;-87
2021/12/15 14:29:25;;;;;;;38.60;20.10;;;10.50;99.90;;;;;;5048865;28;20052;-87
2021/12/15 14:31:53;;;;;;;38.97;22.03;;;10.50;99.90;;;;;;5032690;28;20513;-87
2021/12/15 14:34:23;;;;;;;35.63;19.67;;;10.50;99.90;;;;;;5032613;28;20037;-87
2021/12/15 14:37:10;;;;;;;37.43;20.97;;;10.40;99.90;;;;;;5032682;28;20075;-87
2021/12/15 14:39:39;;;;;;;37.87;21.10;;;10.40;99.90;;;;;;5048979;28;20037;-88
2021/12/15 14:42:10;;;;;;;;;;;10.40;99.90;;;;;;5016334;28;20088;-88
2021/12/15 14:44:42;;;;;;;37.73;20.63;;;10.40;99.90;;;;;;5032678;28;19916;-86
2021/12/15 14:47:18;;;;;;;37.07;19.87;;;10.40;99.90;;;;;;5049155;28;20099;-87
2021/12/15 14:49:47;;;;;;;35.83;21.20;;;10.40;99.90;;;;;;5038286;28;20025;-87
2021/12/15 14:52:18;;;;;;;38.60;20.38;;;10.50;99.90;;;;;;5019342;28;20033;-86
2021/12/15 14:54:46;;;;;;;44.30;22.63;;;10.50;99.90;;;;;;5036504;28;20091;-87
2021/12/15 14:57:18;;;;;;;40.60;21.47;;;10.50;99.90;;;;;;5035834;28;20025;-86
2021/12/15 14:59:49;;;;;;;36.47;20.63;;;10.40;99.90;;;;;;5026689;28;20036;-87
2021/12/15 15:02:24;;;;;;;38.50;20.53;;;10.50;99.90;;;;;;5040143;28;20116;-86
2021/12/15 15:04:59;;;;;;;36.50;21.33;;;10.50;99.90;;;;;;5039899;28;20029;-88
2021/12/15 15:07:28;;;;;;;39.40;20.20;;;10.50;99.90;;;;;;5044023;28;20029;-87
2021/12/15 15:09:58;;;;;;;33.53;18.97;;;10.50;99.90;;;;;;5026359;28;20034;-87
2021/12/15 15:12:31;;;;;;;36.47;20.77;;;10.50;99.90;;;;;;5042079;28;20109;-86
2021/12/15 15:15:03;;;;;;;39.83;20.90;;;10.50;99.90;;;;;;5042073;28;20034;-87
2021/12/15 15:17:55;;;;;;;34.13;19.87;;;10.50;99.90;;;;;;5040079;28;20044;-87
2021/12/15 15:20:30;;;;;;;36.13;20.20;;;10.40;99.90;;;;;;5059164;28;20048;-87
2021/12/15 15:23:00;;;;;;;33.77;18.57;;;10.50;99.90;;;;;;5042684;28;20412;-86
2021/12/15 15:25:28;;;;;;;36.93;20.63;;;10.50;99.90;;;;;;5025418;28;20093;-88
2021/12/15 15:27:58;;;;;;;35.08;19.65;;;10.50;99.90;;;;;;5042651;28;20141;-87
2021/12/15 15:30:28;;;;;;;34.93;19.87;;;10.50;99.90;;;;;;5042388;28;20029;-87
2021/12/15 15:32:59;;;;;;;35.23;19.40;;;10.50;99.90;;;;;;5042206;28;20026;-87
2021/12/15 15:35:26;;;;;;;35.73;19.90;;;10.40;99.90;;;;;;5058234;28;20029;-87
2021/12/15 15:37:56;;;;;;;37.80;20.30;;;10.40;99.90;;;;;;5032245;28;20484;-87
2021/12/15 15:40:34;;;;;;;34.75;19.35;;;10.40;99.90;;;;;;5048306;28;20075;-88
2021/12/15 15:43:22;;;;;;;36.00;20.40;;;10.40;99.90;;;;;;5031669;28;20048;-87
2021/12/15 15:45:51;;;;;;;32.97;19.63;;;10.40;99.90;;;;;;5031621;28;20057;-87
2021/12/15 15:48:27;;;;;;;35.28;19.70;;;10.40;99.90;;;;;;5015266;28;20026;-88
2021/12/15 15:51:09;;;;;;;34.57;19.27;;;10.40;99.90;;;;;;5031615;28;20112;-87
2021/12/15 15:53:36;;;;;;;37.13;20.53;;;10.40;99.90;;;;;;5031775;28;20488;-87
2021/12/15 15:56:23;;;;;;;34.93;19.63;;;10.30;99.90;;;;;;5014961;28;20399;-87
2021/12/15 15:58:54;;;;;;;32.93;19.43;;;10.40;99.90;;;;;;5047692;28;20033;-86
2021/12/15 16:01:22;;;;;;;35.80;21.60;;;10.40;99.90;;;;;;5031318;28;20037;-87
2021/12/15 16:03:52;;;;;;;35.67;20.27;;;10.40;99.90;;;;;;5047792;28;20111;-87
2021/12/15 16:06:19;;;;;;;33.07;20.03;;;10.40;99.90;;;;;;5031148;28;20029;-87
2021/12/15 16:08:46;;;;;;;34.37;19.80;;;10.30;99.90;;;;;;5014641;28;20127;-87
2021/12/15 16:11:22;;;;;;;32.37;19.13;;;10.40;99.90;;;;;;5030957;28;20091;-87